createdAt,value
2019-05-03T00:00:02.598Z,0
2019-05-03T00:00:59.762Z,0
2019-05-03T00:01:58.390Z,0
2019-05-03T00:02:56.952Z,0
2019-05-03T00:03:55.533Z,0
2019-05-03T00:04:54.220Z,0
2019-05-03T00:05:52.729Z,0
2019-05-03T00:06:52.074Z,0
2019-05-03T00:07:49.902Z,0
2019-05-03T00:08:48.436Z,0
2019-05-03T00:09:47.166Z,0
2019-05-03T00:10:45.892Z,0
2019-05-03T00:11:44.593Z,0
2019-05-03T00:12:43.245Z,0
2019-05-03T00:13:41.954Z,0
2019-05-03T00:14:41.670Z,0
2019-05-03T00:15:38.987Z,0
2019-05-03T00:16:37.687Z,0
2019-05-03T00:17:36.226Z,0
2019-05-03T00:18:34.802Z,0
2019-05-03T00:19:33.591Z,0
2019-05-03T00:20:32.694Z,0
2019-05-03T00:21:32.560Z,0
2019-05-03T00:22:29.442Z,0
2019-05-03T00:23:28.008Z,0
2019-05-03T00:24:26.632Z,0
2019-05-03T00:25:25.373Z,0
2019-05-03T00:26:24.101Z,0
2019-05-03T00:27:22.661Z,0
2019-05-03T00:28:21.665Z,0
2019-05-03T00:29:21.845Z,0
2019-05-03T00:30:18.610Z,0
2019-05-03T00:31:17.159Z,0
2019-05-03T00:32:15.732Z,0
2019-05-03T00:33:14.298Z,0
2019-05-03T00:34:12.871Z,0
2019-05-03T00:35:12.006Z,0
2019-05-03T00:36:11.650Z,0
2019-05-03T00:37:08.662Z,0
2019-05-03T00:38:07.216Z,0
2019-05-03T00:39:05.855Z,0
2019-05-03T00:40:04.508Z,0
2019-05-03T00:41:03.153Z,0
2019-05-03T00:42:02.694Z,0
2019-05-03T00:43:02.151Z,0
2019-05-03T00:43:58.893Z,0
2019-05-03T00:44:57.430Z,0
2019-05-03T00:45:55.985Z,0
2019-05-03T00:46:54.539Z,0
2019-05-03T00:47:53.196Z,0
2019-05-03T00:48:52.522Z,0
2019-05-03T00:49:51.821Z,0
2019-05-03T00:50:49.386Z,0
2019-05-03T00:51:47.975Z,0
2019-05-03T00:52:46.534Z,0
2019-05-03T00:53:45.095Z,0
2019-05-03T00:54:43.757Z,0
2019-05-03T00:55:42.311Z,0
2019-05-03T00:56:44.013Z,0
2019-05-03T00:57:41.488Z,0
2019-05-03T00:58:38.438Z,0
2019-05-03T00:59:36.991Z,0
2019-05-03T01:00:35.596Z,0
2019-05-03T01:01:34.225Z,0
2019-05-03T01:02:32.767Z,0
2019-05-03T01:03:32.520Z,0
2019-05-03T01:04:31.758Z,0
2019-05-03T01:05:28.740Z,0
2019-05-03T01:06:27.486Z,0
2019-05-03T01:07:26.139Z,0
2019-05-03T01:08:24.691Z,0
2019-05-03T01:09:23.242Z,0
2019-05-03T01:10:22.557Z,0
2019-05-03T01:11:22.045Z,0
2019-05-03T01:12:19.003Z,0
2019-05-03T01:13:17.682Z,0
2019-05-03T01:14:16.378Z,0
2019-05-03T01:15:14.962Z,0
2019-05-03T01:16:13.776Z,0
2019-05-03T01:17:12.360Z,0
2019-05-03T01:18:12.295Z,0
2019-05-03T01:19:09.451Z,0
2019-05-03T01:20:07.976Z,0
2019-05-03T01:21:06.554Z,0
2019-05-03T01:22:05.257Z,0
2019-05-03T01:23:03.866Z,0
2019-05-03T01:24:02.400Z,0
2019-05-03T01:25:02.792Z,0
2019-05-03T01:25:59.701Z,0
2019-05-03T01:26:58.379Z,0
2019-05-03T01:27:56.945Z,0
2019-05-03T01:28:55.565Z,0
2019-05-03T01:29:54.149Z,0
2019-05-03T01:30:52.704Z,0
2019-05-03T01:31:52.779Z,0
2019-05-03T01:32:52.206Z,0
2019-05-03T01:33:48.752Z,0
2019-05-03T01:36:32.087Z,0
2019-05-03T01:37:29.471Z,0
2019-05-03T01:38:28.063Z,0
2019-05-03T01:39:26.640Z,0
2019-05-03T01:40:25.188Z,0
2019-05-03T01:41:23.771Z,0
2019-05-03T01:42:22.696Z,0
2019-05-03T01:43:22.161Z,0
2019-05-03T01:44:19.503Z,0
2019-05-03T01:45:18.142Z,0
2019-05-03T01:46:16.771Z,0
2019-05-03T01:47:15.392Z,0
2019-05-03T01:48:14.195Z,0
2019-05-03T01:49:12.754Z,0
2019-05-03T01:50:12.143Z,0
2019-05-03T01:51:11.692Z,0
2019-05-03T01:52:08.381Z,0
2019-05-03T01:53:06.923Z,0
2019-05-03T01:54:05.577Z,0
2019-05-03T01:55:04.161Z,0
2019-05-03T01:56:03.622Z,0
2019-05-03T01:57:02.384Z,0
2019-05-03T01:58:01.818Z,0
2019-05-03T01:58:58.565Z,0
2019-05-03T01:59:57.138Z,0
2019-05-03T02:00:55.776Z,0
2019-05-03T02:01:54.521Z,0
2019-05-03T02:02:53.079Z,0
2019-05-03T02:03:52.284Z,0
2019-05-03T02:04:50.140Z,0
2019-05-03T02:05:48.694Z,0
2019-05-03T02:06:47.363Z,0
2019-05-03T02:07:48.389Z,0
2019-05-03T02:08:44.635Z,0
2019-05-03T02:09:43.284Z,0
2019-05-03T02:10:43.588Z,0
2019-05-03T02:11:42.093Z,0
2019-05-03T02:12:39.131Z,0
2019-05-03T02:13:37.710Z,0
2019-05-03T02:14:36.260Z,0
2019-05-03T02:15:34.801Z,0
2019-05-03T02:16:33.423Z,0
2019-05-03T02:17:31.969Z,0
2019-05-03T02:18:31.795Z,0
2019-05-03T02:19:29.076Z,0
2019-05-03T02:20:27.836Z,0
2019-05-03T02:21:26.391Z,0
2019-05-03T02:22:24.946Z,0
2019-05-03T02:23:23.762Z,0
2019-05-03T02:24:22.368Z,0
2019-05-03T02:25:21.734Z,0
2019-05-03T02:26:19.476Z,0
2019-05-03T02:27:18.033Z,0
2019-05-03T02:28:16.583Z,0
2019-05-03T02:29:15.187Z,0
2019-05-03T02:30:14.619Z,0
2019-05-03T02:31:13.625Z,0
2019-05-03T02:32:13.142Z,0
2019-05-03T02:33:09.856Z,0
2019-05-03T02:34:08.424Z,0
2019-05-03T02:35:06.968Z,0
2019-05-03T02:36:05.522Z,0
2019-05-03T02:37:04.053Z,0
2019-05-03T02:38:03.491Z,0
2019-05-03T02:39:02.817Z,0
2019-05-03T02:39:59.872Z,0
2019-05-03T02:40:58.445Z,0
2019-05-03T02:42:02.754Z,0
2019-05-03T02:42:55.896Z,0
2019-05-03T02:43:55.974Z,0
2019-05-03T02:44:55.060Z,0
2019-05-03T02:45:51.674Z,0
2019-05-03T02:46:50.234Z,0
2019-05-03T02:47:48.773Z,0
2019-05-03T02:48:47.343Z,0
2019-05-03T02:49:45.901Z,0
2019-05-03T02:50:45.224Z,0
2019-05-03T02:51:45.930Z,0
2019-05-03T02:52:41.772Z,0
2019-05-03T02:53:40.380Z,0
2019-05-03T02:54:38.937Z,0
2019-05-03T02:55:37.679Z,0
2019-05-03T02:56:36.255Z,0
2019-05-03T02:57:35.240Z,0
2019-05-03T02:58:35.616Z,0
2019-05-03T02:59:31.954Z,0
2019-05-03T03:00:30.627Z,0
2019-05-03T03:01:29.345Z,0
2019-05-03T03:02:28.070Z,0
2019-05-03T03:03:26.637Z,0
2019-05-03T03:04:25.946Z,0
2019-05-03T03:05:25.241Z,0
2019-05-03T03:06:22.468Z,0
2019-05-03T03:07:21.048Z,0
2019-05-03T03:08:19.586Z,0
2019-05-03T03:09:18.227Z,0
2019-05-03T03:10:16.776Z,0
2019-05-03T03:11:15.613Z,0
2019-05-03T03:12:15.218Z,0
2019-05-03T03:13:12.709Z,0
2019-05-03T03:14:11.343Z,0
2019-05-03T03:15:10.144Z,0
2019-05-03T03:16:08.714Z,0
2019-05-03T03:17:07.268Z,0
2019-05-03T03:18:06.236Z,0
2019-05-03T03:19:06.546Z,0
2019-05-03T03:20:05.062Z,0
2019-05-03T03:21:01.634Z,0
2019-05-03T03:22:00.257Z,0
2019-05-03T03:22:58.827Z,0
2019-05-03T03:23:57.479Z,0
2019-05-03T03:24:56.154Z,0
2019-05-03T03:25:55.819Z,0
2019-05-03T03:26:56.291Z,0
2019-05-03T03:27:51.879Z,0
2019-05-03T03:28:50.454Z,0
2019-05-03T03:29:49.010Z,0
2019-05-03T03:30:48.745Z,0
2019-05-03T03:31:48.118Z,0
2019-05-03T03:32:48.156Z,0
2019-05-03T03:33:47.373Z,0
2019-05-03T03:34:49.641Z,0
2019-05-03T03:35:40.882Z,0
2019-05-03T03:36:54.256Z,0
2019-05-03T03:37:38.156Z,0
2019-05-03T03:38:36.716Z,0
2019-05-03T03:39:36.046Z,0
2019-05-03T03:40:35.776Z,0
2019-05-03T03:41:32.645Z,0
2019-05-03T03:42:31.237Z,0
2019-05-03T03:43:29.797Z,0
2019-05-03T03:44:28.432Z,0
2019-05-03T03:45:27.002Z,0
2019-05-03T03:46:25.599Z,0
2019-05-03T03:47:26.896Z,0
2019-05-03T03:48:22.754Z,0
2019-05-03T03:49:21.306Z,0
2019-05-03T03:50:19.875Z,0
2019-05-03T03:51:18.448Z,0
2019-05-03T03:52:17.080Z,0
2019-05-03T03:53:15.687Z,0
2019-05-03T03:54:15.462Z,0
2019-05-03T03:55:15.623Z,0
2019-05-03T03:56:11.475Z,0
2019-05-03T03:57:10.146Z,0
2019-05-03T03:58:08.704Z,0
2019-05-03T03:59:07.271Z,0
2019-05-03T04:00:05.837Z,0
2019-05-03T04:01:06.054Z,0
2019-05-03T04:02:02.936Z,0
2019-05-03T04:03:01.474Z,0
2019-05-03T04:04:00.023Z,0
2019-05-03T04:04:58.542Z,0
2019-05-03T04:05:57.084Z,0
2019-05-03T04:06:58.638Z,0
2019-05-03T04:07:56.032Z,0
2019-05-03T04:08:52.756Z,0
2019-05-03T04:09:51.390Z,0
2019-05-03T04:10:50.033Z,0
2019-05-03T04:11:48.609Z,0
2019-05-03T04:12:47.347Z,0
2019-05-03T04:13:46.133Z,0
2019-05-03T04:14:45.265Z,0
2019-05-03T04:15:45.264Z,0
2019-05-03T04:16:41.777Z,0
2019-05-03T04:17:40.328Z,0
2019-05-03T04:18:38.946Z,0
2019-05-03T04:19:37.537Z,0
2019-05-03T04:20:36.323Z,0
2019-05-03T04:21:35.856Z,0
2019-05-03T04:22:36.136Z,0
2019-05-03T04:23:32.158Z,0
2019-05-03T04:24:30.700Z,0
2019-05-03T04:25:29.263Z,0
2019-05-03T04:26:29.865Z,0
2019-05-03T04:27:27.650Z,0
2019-05-03T04:28:25.608Z,0
2019-05-03T04:29:25.374Z,0
2019-05-03T04:30:25.405Z,0
2019-05-03T04:31:21.185Z,0
2019-05-03T04:32:19.955Z,5
2019-05-03T04:33:18.534Z,5
2019-05-03T04:34:17.111Z,5
2019-05-03T04:35:16.534Z,5
2019-05-03T04:36:15.890Z,5
2019-05-03T04:37:15.891Z,5
2019-05-03T04:38:11.674Z,5
2019-05-03T04:39:10.407Z,5
2019-05-03T04:40:08.955Z,5
2019-05-03T04:41:07.529Z,5
2019-05-03T04:42:06.858Z,5
2019-05-03T04:43:05.983Z,5
2019-05-03T04:44:06.027Z,5
2019-05-03T04:45:02.067Z,0
2019-05-03T04:46:00.603Z,0
2019-05-03T04:46:59.234Z,0
2019-05-03T04:47:57.929Z,0
2019-05-03T04:48:56.484Z,0
2019-05-03T04:49:55.545Z,0
2019-05-03T04:50:54.979Z,0
2019-05-03T04:51:52.263Z,0
2019-05-03T04:52:50.807Z,0
2019-05-03T04:53:49.389Z,0
2019-05-03T04:54:47.928Z,0
2019-05-03T04:55:47.012Z,0
2019-05-03T04:56:46.372Z,0
2019-05-03T04:57:46.648Z,0
2019-05-03T04:58:42.369Z,0
2019-05-03T04:59:40.896Z,0
2019-05-03T05:00:39.540Z,0
2019-05-03T05:01:38.275Z,0
2019-05-03T05:02:36.794Z,0
2019-05-03T05:03:36.064Z,0
2019-05-03T05:04:35.681Z,0
2019-05-03T05:05:32.499Z,0
2019-05-03T05:06:31.049Z,0
2019-05-03T05:07:29.596Z,0
2019-05-03T05:08:28.147Z,0
2019-05-03T05:09:26.713Z,0
2019-05-03T05:10:26.221Z,0
2019-05-03T05:11:26.199Z,0
2019-05-03T05:12:24.952Z,0
2019-05-03T05:13:21.026Z,0
2019-05-03T05:14:19.822Z,0
2019-05-03T05:15:18.405Z,0
2019-05-03T05:16:16.990Z,0
2019-05-03T05:17:16.245Z,0
2019-05-03T05:18:15.931Z,0
2019-05-03T05:19:15.045Z,0
2019-05-03T05:20:11.317Z,0
2019-05-03T05:21:09.899Z,0
2019-05-03T05:22:08.466Z,0
2019-05-03T05:23:07.085Z,0
2019-05-03T05:24:05.843Z,0
2019-05-03T05:25:04.591Z,0
2019-05-03T05:26:02.975Z,0
2019-05-03T05:27:01.820Z,0
2019-05-03T05:28:00.367Z,0
2019-05-03T05:28:58.956Z,0
2019-05-03T05:29:57.697Z,0
2019-05-03T05:30:56.226Z,0
2019-05-03T05:31:54.918Z,5
2019-05-03T05:32:55.056Z,5
2019-05-03T05:33:52.061Z,5
2019-05-03T05:34:50.641Z,5
2019-05-03T05:35:49.270Z,5
2019-05-03T05:38:34.618Z,5
2019-05-03T05:39:32.307Z,5
2019-05-03T05:42:16.687Z,5
2019-05-03T05:43:15.331Z,5
2019-05-03T05:44:14.470Z,5
2019-05-03T05:45:12.354Z,5
2019-05-03T05:46:10.998Z,5
2019-05-03T05:47:09.723Z,5
2019-05-03T05:48:08.331Z,5
2019-05-03T05:49:06.895Z,5
2019-05-03T05:50:05.580Z,5
2019-05-03T05:51:04.483Z,5
2019-05-03T05:52:02.745Z,5
2019-05-03T05:53:01.304Z,5
2019-05-03T05:53:59.973Z,5
2019-05-03T05:54:58.531Z,5
2019-05-03T05:55:57.391Z,5
2019-05-03T05:56:56.077Z,5
2019-05-03T05:58:02.727Z,5
2019-05-03T06:00:35.893Z,5
2019-05-03T06:01:35.304Z,10
2019-05-03T06:02:32.026Z,10
2019-05-03T06:07:10.167Z,10
2019-05-03T06:08:08.736Z,10
2019-05-03T06:10:31.778Z,10
2019-05-03T06:11:30.367Z,15
2019-05-03T06:12:29.017Z,15
2019-05-03T06:15:37.287Z,15
2019-05-03T06:16:35.895Z,15
2019-05-03T06:17:34.865Z,15
2019-05-03T06:18:35.187Z,15
2019-05-03T06:19:31.755Z,15
2019-05-03T06:20:30.351Z,20
2019-05-03T06:21:28.927Z,20
2019-05-03T06:22:27.607Z,25
2019-05-03T06:23:26.205Z,30
2019-05-03T06:24:24.966Z,30
2019-05-03T06:25:26.435Z,35
2019-05-03T06:26:22.220Z,35
2019-05-03T06:27:20.800Z,35
2019-05-03T06:28:20.896Z,35
2019-05-03T06:29:18.176Z,35
2019-05-03T06:30:16.694Z,40
2019-05-03T06:31:15.272Z,40
2019-05-03T06:32:15.345Z,45
2019-05-03T06:33:14.288Z,50
2019-05-03T06:34:10.903Z,50
2019-05-03T06:35:09.436Z,55
2019-05-03T06:36:08.021Z,60
2019-05-03T06:37:06.551Z,60
2019-05-03T06:38:05.241Z,65
2019-05-03T06:39:05.774Z,65
2019-05-03T06:40:05.584Z,60
2019-05-03T06:41:01.092Z,55
2019-05-03T06:41:59.762Z,55
2019-05-03T06:43:08.310Z,55
2019-05-03T06:43:56.884Z,55
2019-05-03T06:44:59.141Z,55
2019-05-03T06:45:54.784Z,55
2019-05-03T06:46:52.567Z,60
2019-05-03T06:47:51.109Z,70
2019-05-03T06:48:49.675Z,75
2019-05-03T06:49:48.592Z,85
2019-05-03T06:50:46.794Z,95
2019-05-03T06:51:49.420Z,100
2019-05-03T06:52:44.516Z,105
2019-05-03T06:53:47.474Z,115
2019-05-03T06:54:41.125Z,125
2019-05-03T06:55:44.271Z,135
2019-05-03T06:56:41.171Z,135
2019-05-03T06:57:39.984Z,135
2019-05-03T06:58:36.411Z,135
2019-05-03T06:59:35.847Z,130
2019-05-03T07:00:34.919Z,130
2019-05-03T07:01:31.394Z,130
2019-05-03T07:02:29.968Z,130
2019-05-03T07:03:28.517Z,130
2019-05-03T07:04:27.288Z,120
2019-05-03T07:05:26.119Z,115
2019-05-03T07:06:34.279Z,115
2019-05-03T07:07:26.050Z,115
2019-05-03T07:08:21.922Z,115
2019-05-03T07:09:20.470Z,115
2019-05-03T07:10:19.050Z,120
2019-05-03T07:11:17.722Z,120
2019-05-03T07:12:16.293Z,125
2019-05-03T07:13:15.266Z,125
2019-05-03T07:14:15.345Z,135
2019-05-03T07:15:12.100Z,135
2019-05-03T07:16:10.676Z,140
2019-05-03T07:17:09.224Z,140
2019-05-03T07:18:08.051Z,145
2019-05-03T07:19:06.645Z,145
2019-05-03T07:20:05.222Z,145
2019-05-03T07:21:04.829Z,155
2019-05-03T07:22:02.487Z,165
2019-05-03T07:23:01.042Z,175
2019-05-03T07:23:59.660Z,185
2019-05-03T07:24:58.232Z,195
2019-05-03T07:25:56.788Z,175
2019-05-03T07:26:55.383Z,165
2019-05-03T07:27:55.485Z,155
2019-05-03T07:28:54.473Z,150
2019-05-03T07:29:51.328Z,150
2019-05-03T07:30:49.821Z,150
2019-05-03T07:31:48.361Z,155
2019-05-03T07:32:46.915Z,155
2019-05-03T07:33:45.619Z,165
2019-05-03T07:34:45.266Z,165
2019-05-03T07:35:44.462Z,165
2019-05-03T07:36:41.404Z,170
2019-05-03T07:37:40.017Z,185
2019-05-03T07:38:38.569Z,195
2019-05-03T07:39:37.144Z,195
2019-05-03T07:40:35.830Z,200
2019-05-03T07:41:35.599Z,200
2019-05-03T07:42:34.667Z,200
2019-05-03T07:43:31.504Z,205
2019-05-03T07:44:30.168Z,210
2019-05-03T07:45:28.739Z,210
2019-05-03T07:46:27.407Z,215
2019-05-03T07:47:26.165Z,220
2019-05-03T07:48:25.413Z,230
2019-05-03T07:49:24.927Z,280
2019-05-03T07:50:21.962Z,260
2019-05-03T07:51:20.582Z,255
2019-05-03T07:52:19.149Z,265
2019-05-03T07:53:17.767Z,305
2019-05-03T07:54:16.361Z,275
2019-05-03T07:55:15.088Z,265
2019-05-03T07:56:15.410Z,280
2019-05-03T07:57:12.241Z,245
2019-05-03T07:58:10.773Z,205
2019-05-03T07:59:09.464Z,200
2019-05-03T08:00:08.305Z,180
2019-05-03T08:01:09.746Z,155
2019-05-03T08:02:05.681Z,150
2019-05-03T08:03:04.981Z,150
2019-05-03T08:04:02.388Z,155
2019-05-03T08:05:00.929Z,165
2019-05-03T08:05:59.496Z,175
2019-05-03T08:06:58.049Z,170
2019-05-03T08:07:56.605Z,165
2019-05-03T08:08:55.305Z,170
2019-05-03T08:09:55.487Z,165
2019-05-03T08:10:54.615Z,160
2019-05-03T08:11:51.356Z,120
2019-05-03T08:12:50.000Z,50
2019-05-03T08:13:48.560Z,80
2019-05-03T08:14:47.145Z,20
2019-05-03T08:15:45.870Z,60
2019-05-03T08:16:45.595Z,60
2019-05-03T08:17:44.924Z,65
2019-05-03T08:18:41.778Z,65
2019-05-03T08:19:40.431Z,65
2019-05-03T08:20:38.980Z,70
2019-05-03T08:21:38.748Z,70
2019-05-03T08:22:36.186Z,70
2019-05-03T08:23:35.322Z,60
2019-05-03T08:24:34.528Z,70
2019-05-03T08:25:31.978Z,75
2019-05-03T08:26:30.554Z,70
2019-05-03T08:27:29.113Z,70
2019-05-03T08:28:27.892Z,75
2019-05-03T08:29:26.631Z,65
2019-05-03T08:30:25.182Z,75
2019-05-03T08:31:26.046Z,75
2019-05-03T08:32:24.436Z,60
2019-05-03T08:33:20.966Z,60
2019-05-03T08:34:19.688Z,60
2019-05-03T08:35:18.391Z,70
2019-05-03T08:36:16.943Z,75
2019-05-03T08:37:15.827Z,75
2019-05-03T08:38:15.249Z,80
2019-05-03T08:39:12.943Z,75
2019-05-03T08:40:11.521Z,65
2019-05-03T08:41:10.085Z,75
2019-05-03T08:42:08.647Z,70
2019-05-03T08:43:07.299Z,80
2019-05-03T08:44:06.008Z,75
2019-05-03T08:45:07.822Z,75
2019-05-03T08:46:04.634Z,80
2019-05-03T08:47:02.732Z,80
2019-05-03T08:48:01.362Z,80
2019-05-03T08:49:00.025Z,80
2019-05-03T08:49:58.584Z,60
2019-05-03T08:50:57.366Z,60
2019-05-03T08:51:55.960Z,65
2019-05-03T08:52:55.673Z,70
2019-05-03T08:53:53.077Z,70
2019-05-03T08:54:51.793Z,70
2019-05-03T08:55:50.432Z,65
2019-05-03T08:56:48.975Z,65
2019-05-03T08:57:47.694Z,70
2019-05-03T08:58:46.229Z,75
2019-05-03T08:59:44.795Z,75
2019-05-03T09:00:45.284Z,70
2019-05-03T09:01:42.016Z,75
2019-05-03T09:02:40.533Z,70
2019-05-03T09:03:39.089Z,75
2019-05-03T09:04:40.637Z,80
2019-05-03T09:05:36.526Z,85
2019-05-03T09:06:35.514Z,90
2019-05-03T09:07:35.479Z,90
2019-05-03T09:08:32.323Z,85
2019-05-03T09:09:30.953Z,95
2019-05-03T09:10:29.448Z,95
2019-05-03T09:11:33.522Z,95
2019-05-03T09:12:26.555Z,90
2019-05-03T09:13:25.352Z,90
2019-05-03T09:14:24.435Z,90
2019-05-03T09:15:24.505Z,85
2019-05-03T09:16:21.208Z,95
2019-05-03T09:17:19.870Z,70
2019-05-03T09:18:18.450Z,65
2019-05-03T09:19:16.993Z,65
2019-05-03T09:20:15.659Z,60
2019-05-03T09:21:14.752Z,55
2019-05-03T09:22:14.509Z,50
2019-05-03T09:23:11.288Z,45
2019-05-03T09:24:09.770Z,40
2019-05-03T09:25:08.321Z,35
2019-05-03T09:26:06.882Z,30
2019-05-03T09:27:05.752Z,30
2019-05-03T09:28:04.762Z,30
2019-05-03T09:29:02.732Z,30
2019-05-03T09:30:01.415Z,30
2019-05-03T09:31:00.276Z,30
2019-05-03T09:31:58.826Z,30
2019-05-03T09:32:57.369Z,35
2019-05-03T09:33:56.052Z,35
2019-05-03T09:34:55.142Z,35
2019-05-03T09:35:54.932Z,35
2019-05-03T09:36:52.028Z,35
2019-05-03T09:37:50.533Z,35
2019-05-03T09:38:49.069Z,35
2019-05-03T09:39:47.704Z,35
2019-05-03T09:42:32.074Z,30
2019-05-03T09:43:30.704Z,35
2019-05-03T10:11:07.605Z,70
2019-05-03T10:12:06.333Z,70
2019-05-03T10:13:13.703Z,70
2019-05-03T10:14:04.659Z,70
2019-05-03T10:15:02.289Z,80
2019-05-03T10:16:00.848Z,70
2019-05-03T10:16:59.414Z,70
2019-05-03T10:17:58.087Z,75
2019-05-03T10:21:36.966Z,70
2019-05-03T10:22:35.791Z,75
2019-05-03T10:23:35.687Z,70
2019-05-03T10:24:34.759Z,70
2019-05-03T10:25:31.866Z,70
2019-05-03T10:26:30.522Z,70
2019-05-03T10:27:29.098Z,70
2019-05-03T10:28:27.730Z,70
2019-05-03T10:29:26.286Z,70
2019-05-03T10:30:24.847Z,75
2019-05-03T10:31:25.153Z,75
2019-05-03T10:32:22.034Z,85
2019-05-03T10:33:20.625Z,90
2019-05-03T10:34:19.281Z,90
2019-05-03T10:35:17.937Z,95
2019-05-03T10:36:16.493Z,100
2019-05-03T10:37:15.165Z,95
2019-05-03T10:39:38.046Z,85
2019-05-03T10:40:37.152Z,85
2019-05-03T10:41:35.241Z,85
2019-05-03T10:42:35.268Z,80
2019-05-03T10:43:32.527Z,75
2019-05-03T10:44:31.083Z,75
2019-05-03T10:45:29.766Z,75
2019-05-03T10:46:28.371Z,75
2019-05-03T10:47:26.950Z,75
2019-05-03T10:48:25.522Z,70
2019-05-03T10:49:24.555Z,70
2019-05-03T10:50:24.990Z,70
2019-05-03T10:51:21.266Z,70
2019-05-03T10:52:19.872Z,65
2019-05-03T10:53:18.425Z,65
2019-05-03T10:54:17.026Z,65
2019-05-03T10:55:15.980Z,75
2019-05-03T10:56:20.171Z,65
2019-05-03T10:57:12.949Z,65
2019-05-03T10:58:11.500Z,60
2019-05-03T10:59:10.134Z,60
2019-05-03T11:00:08.688Z,60
2019-05-03T11:01:07.214Z,65
2019-05-03T11:02:05.853Z,65
2019-05-03T11:03:05.285Z,70
2019-05-03T11:04:04.800Z,70
2019-05-03T11:05:01.625Z,65
2019-05-03T11:06:00.216Z,60
2019-05-03T11:06:58.745Z,65
2019-05-03T11:07:57.340Z,65
2019-05-03T11:08:55.974Z,60
2019-05-03T11:09:55.076Z,65
2019-05-03T11:10:54.852Z,65
2019-05-03T11:11:51.787Z,65
2019-05-03T11:12:50.387Z,65
2019-05-03T11:13:49.006Z,55
2019-05-03T11:14:47.575Z,60
2019-05-03T11:15:46.111Z,55
2019-05-03T11:16:45.953Z,50
2019-05-03T11:17:45.357Z,50
2019-05-03T11:18:41.934Z,55
2019-05-03T11:19:40.564Z,55
2019-05-03T11:20:39.181Z,55
2019-05-03T11:21:37.888Z,55
2019-05-03T11:22:36.583Z,55
2019-05-03T11:23:35.154Z,60
2019-05-03T11:24:34.827Z,60
2019-05-03T11:25:34.243Z,65
2019-05-03T11:26:30.823Z,65
2019-05-03T11:27:29.703Z,70
2019-05-03T11:28:29.346Z,75
2019-05-03T11:29:28.713Z,75
2019-05-03T11:32:36.154Z,85
2019-05-03T11:33:35.314Z,85
2019-05-03T11:34:35.425Z,85
2019-05-03T11:35:32.784Z,85
2019-05-03T11:36:31.809Z,90
2019-05-03T11:37:30.100Z,85
2019-05-03T11:38:28.680Z,80
2019-05-03T11:39:27.264Z,85
2019-05-03T11:40:25.864Z,85
2019-05-03T11:41:31.967Z,85
2019-05-03T11:42:24.516Z,80
2019-05-03T11:43:21.585Z,85
2019-05-03T11:44:20.228Z,75
2019-05-03T11:45:18.774Z,70
2019-05-03T11:46:17.348Z,70
2019-05-03T11:47:16.169Z,75
2019-05-03T11:48:14.894Z,75
2019-05-03T11:49:14.848Z,80
2019-05-03T11:50:11.865Z,75
2019-05-03T11:51:10.391Z,75
2019-05-03T11:52:08.941Z,75
2019-05-03T11:53:08.128Z,75
2019-05-03T11:54:06.258Z,65
2019-05-03T11:55:11.139Z,65
2019-05-03T11:56:05.466Z,65
2019-05-03T11:57:02.293Z,60
2019-05-03T11:58:00.839Z,60
2019-05-03T12:00:41.224Z,60
2019-05-03T12:03:47.794Z,55
2019-05-03T12:04:46.475Z,50
2019-05-03T12:05:45.017Z,45
2019-05-03T12:06:45.463Z,45
2019-05-03T12:07:42.065Z,45
2019-05-03T12:08:40.720Z,45
2019-05-03T12:09:39.424Z,40
2019-05-03T12:10:51.461Z,40
2019-05-03T12:11:36.658Z,40
2019-05-03T12:12:35.404Z,40
2019-05-03T12:13:33.926Z,40
2019-05-03T12:14:34.520Z,40
2019-05-03T12:17:12.911Z,35
2019-05-03T12:17:57.968Z,35
2019-05-03T12:18:54.210Z,35
2019-05-03T12:19:52.459Z,35
2019-05-03T12:22:32.538Z,35
2019-05-03T12:23:31.699Z,35
2019-05-03T12:24:29.805Z,35
2019-05-03T12:25:28.552Z,35
2019-05-03T12:26:40.024Z,35
2019-05-03T12:27:25.204Z,35
2019-05-03T12:28:25.643Z,35
2019-05-03T12:29:24.462Z,30
2019-05-03T12:31:45.535Z,30
2019-05-03T12:32:43.617Z,30
2019-05-03T12:33:42.255Z,30
2019-05-03T12:37:21.917Z,30
2019-05-03T12:38:20.602Z,30
2019-05-03T12:39:26.158Z,30
2019-05-03T12:40:17.754Z,30
2019-05-03T12:41:16.292Z,30
2019-05-03T12:42:14.917Z,30
2019-05-03T12:43:14.933Z,30
2019-05-03T12:44:12.114Z,30
2019-05-03T12:45:10.704Z,35
2019-05-03T12:46:09.428Z,35
2019-05-03T12:47:08.156Z,35
2019-05-03T12:48:06.756Z,35
2019-05-03T12:49:05.383Z,35
2019-05-03T12:50:05.255Z,35
2019-05-03T12:53:42.856Z,35
2019-05-03T12:54:41.686Z,35
2019-05-03T12:55:40.275Z,35
2019-05-03T12:56:38.863Z,35
2019-05-03T12:57:37.413Z,35
2019-05-03T12:58:35.971Z,35
2019-05-03T12:59:35.938Z,40
2019-05-03T13:00:33.180Z,35
2019-05-03T13:01:40.705Z,35
2019-05-03T13:02:30.510Z,35
2019-05-03T13:03:29.070Z,35
2019-05-03T13:22:09.565Z,25
2019-05-03T13:23:08.324Z,25
2019-05-03T13:24:06.856Z,25
2019-05-03T13:25:05.499Z,25
2019-05-03T13:26:05.503Z,25
2019-05-03T13:27:02.825Z,30
2019-05-03T13:28:01.475Z,30
2019-05-03T13:29:00.153Z,35
2019-05-03T13:29:58.765Z,35
2019-05-03T13:30:57.391Z,40
2019-05-03T13:32:01.761Z,40
2019-05-03T13:32:54.985Z,40
2019-05-03T13:33:54.897Z,40
2019-05-03T13:34:51.823Z,40
2019-05-03T13:35:50.371Z,40
2019-05-03T13:36:48.930Z,40
2019-05-03T13:37:47.476Z,40
2019-05-03T13:38:46.141Z,40
2019-05-03T13:39:45.173Z,40
2019-05-03T13:40:45.158Z,45
2019-05-03T13:41:42.151Z,45
2019-05-03T13:42:53.998Z,50
2019-05-03T13:43:39.258Z,55
2019-05-03T13:44:37.963Z,60
2019-05-03T13:45:36.523Z,65
2019-05-03T13:46:35.365Z,65
2019-05-03T13:47:35.024Z,65
2019-05-03T13:48:42.426Z,65
2019-05-03T13:49:31.044Z,85
2019-05-03T13:50:29.708Z,80
2019-05-03T13:51:28.391Z,70
2019-05-03T13:52:26.953Z,70
2019-05-03T13:53:25.608Z,65
2019-05-03T13:54:25.491Z,65
2019-05-03T13:55:24.518Z,60
2019-05-03T13:56:21.295Z,60
2019-05-03T13:57:19.957Z,55
2019-05-03T13:58:18.575Z,50
2019-05-03T13:59:19.443Z,45
2019-05-03T14:00:15.873Z,45
2019-05-03T14:01:14.795Z,45
2019-05-03T14:02:18.331Z,45
2019-05-03T14:03:11.768Z,40
2019-05-03T14:04:10.397Z,40
2019-05-03T14:05:08.933Z,40
2019-05-03T14:06:08.897Z,40
2019-05-03T14:07:06.381Z,35
2019-05-03T14:08:05.223Z,35
2019-05-03T14:09:05.152Z,35
2019-05-03T14:10:02.252Z,35
2019-05-03T14:11:00.817Z,35
2019-05-03T14:11:59.359Z,30
2019-05-03T14:12:57.937Z,30
2019-05-03T14:13:56.513Z,25
2019-05-03T14:14:56.144Z,25
2019-05-03T14:15:54.764Z,20
2019-05-03T14:16:54.642Z,20
2019-05-03T14:17:51.033Z,20
2019-05-03T14:18:49.651Z,20
2019-05-03T14:19:48.408Z,20
2019-05-03T14:20:46.926Z,20
2019-05-03T14:21:45.482Z,25
2019-05-03T14:22:44.078Z,25
2019-05-03T14:23:42.657Z,25
2019-05-03T14:24:41.219Z,25
2019-05-03T14:25:39.830Z,25
2019-05-03T14:26:38.567Z,25
2019-05-03T14:27:37.054Z,25
2019-05-03T14:28:35.755Z,30
2019-05-03T14:29:34.719Z,30
2019-05-03T14:30:34.611Z,35
2019-05-03T14:31:31.503Z,35
2019-05-03T14:32:30.266Z,35
2019-05-03T14:33:28.818Z,40
2019-05-03T14:34:27.366Z,40
2019-05-03T14:35:26.163Z,45
2019-05-03T14:36:25.186Z,45
2019-05-03T14:37:23.303Z,45
2019-05-03T14:38:21.919Z,50
2019-05-03T14:39:20.510Z,50
2019-05-03T14:40:19.069Z,50
2019-05-03T14:41:17.650Z,55
2019-05-03T14:42:16.295Z,55
2019-05-03T14:43:15.392Z,55
2019-05-03T14:44:15.437Z,55
2019-05-03T14:45:12.088Z,55
2019-05-03T14:46:10.613Z,55
2019-05-03T14:47:09.278Z,55
2019-05-03T14:48:08.203Z,55
2019-05-03T14:49:06.744Z,55
2019-05-03T14:50:05.621Z,50
2019-05-03T14:51:05.443Z,50
2019-05-03T14:52:02.575Z,50
2019-05-03T14:53:01.137Z,50
2019-05-03T14:53:59.886Z,50
2019-05-03T14:54:58.439Z,50
2019-05-03T14:55:56.990Z,50
2019-05-03T14:56:55.564Z,50
2019-05-03T14:57:55.236Z,50
2019-05-03T14:58:52.864Z,50
2019-05-03T14:59:51.472Z,50
2019-05-03T15:00:50.109Z,50
2019-05-03T15:09:26.730Z,55
2019-05-03T15:10:25.287Z,55
2019-05-03T15:11:24.137Z,55
2019-05-03T15:12:24.717Z,55
2019-05-03T15:13:21.243Z,55
2019-05-03T15:14:19.760Z,60
2019-05-03T15:15:18.253Z,55
2019-05-03T15:16:16.809Z,50
2019-05-03T15:17:15.377Z,50
2019-05-03T15:18:14.883Z,50
2019-05-03T15:19:14.643Z,50
2019-05-03T15:20:11.287Z,55
2019-05-03T15:21:09.941Z,50
2019-05-03T15:22:08.650Z,45
2019-05-03T15:23:07.298Z,45
2019-05-03T15:24:05.966Z,45
2019-05-03T15:25:05.043Z,45
2019-05-03T15:26:05.035Z,45
2019-05-03T15:27:02.104Z,45
2019-05-03T15:28:00.772Z,45
2019-05-03T15:28:59.374Z,45
2019-05-03T15:29:57.937Z,45
2019-05-03T15:30:56.575Z,45
2019-05-03T15:31:55.355Z,45
2019-05-03T15:32:59.755Z,45